Página principal
METAR-TAF:

METAR-TAF

Aeroportos :

Narathiwat, Tailândia

latitude: 6-31-12N, longitude: 101-44-36E, altura: 5 m

Observação actual do tempo

O boletim foi feito há 31 minutos, às 06:00 UTC
Vento 11 kt de este
Temperatura 29°C
Humidade 74%
Pressão 1013 hPa
Visibilidade 10 km ou mais
Poucas nuvensa uma altura de 1800 ft

METAR: VTSC 230600Z 09011KT 9999 FEW018 29/24 Q1013 NOSIG

Hora: 13:31 (06:31 UTC)

Previsão

O boletim foi feito há 1 hora e 31 minutos, às 05:00 UTC
Previsão válida de 23 às 06 UTC a 24 às 06 UTC
Vento 10 kt de este
Visibilidade 10 km ou mais
Poucas nuvensa uma altura de 2000 ft
Tornando-se
de 23 às 16 UTC a 23 às 18 UTC
Vento 3 kt de sul
Tornando-se
de 24 às 02 UTC a 24 às 04 UTC
Vento 10 kt de este

TAF: VTSC 230500Z 2306/2406 10010KT 9999 FEW020 BECMG 2316/2318 18003KT BECMG 2402/2404 10010KT

Observações e previsões do tempo de mais de 4000 aeroportos (mensagens METAR e TAF).

As estações disponíveis são os pontos amarelos e vermelhos sobre o mapa.

Mova o rato sobre o mapa para ver o nome da estação.

Depois clique no ponto para visualizar as observações e previsões meteorológicas.

Para alterar o mapa : clique nos botões verdes com uma cruz preta para aumentar o zoom; no botão verde com uma pitada de zoom; ou nas setas verdes para mapas adjacentes.


METAR-TAF: